Time;durP1;ratioP1;P1;durP2;ratioP2;P2;SDS_P1;SDS_P2;PMS_P1;PMS_P2;Temp;Humidity;BMP_temperature;BMP_pressure;BME280_temperature;BME280_humidity;BME280_pressure;Samples;Min_cycle;Max_cycle;Signal;HPM_P1;HPM_P2
2024/01/15 00:02:02;;;;;;;32.97;25.42;;;;;;;4.39;99.44;97388.31;5065888;28;20031;-65
2024/01/15 00:04:30;;;;;;;35.15;26.10;;;;;;;4.35;100.00;97389.53;5071147;27;20024;-66
2024/01/15 00:06:59;;;;;;;36.58;25.23;;;;;;;4.28;100.00;97391.03;5084785;28;20032;-65
2024/01/15 00:09:24;;;;;;;29.88;23.40;;;;;;;4.20;100.00;97379.63;5074496;28;20100;-65
2024/01/15 00:11:50;;;;;;;30.80;22.70;;;;;;;4.21;100.00;97370.97;5057121;28;20933;-65
2024/01/15 00:14:20;;;;;;;27.65;20.33;;;;;;;4.07;100.00;97324.25;5068598;28;20043;-64
2024/01/15 00:16:49;;;;;;;31.50;21.63;;;;;;;4.34;100.00;97354.44;5094467;28;20092;-65
2024/01/15 00:19:14;;;;;;;26.27;20.58;;;;;;;4.39;100.00;97327.34;5068559;28;20130;-65
2024/01/15 00:21:42;;;;;;;27.60;20.10;;;;;;;4.54;100.00;97345.75;5074818;28;20429;-66
2024/01/15 00:24:08;;;;;;;27.15;19.65;;;;;;;4.27;99.71;97300.16;5053852;28;20478;-66
2024/01/15 00:26:33;;;;;;;29.20;20.63;;;;;;;4.31;100.00;97306.66;5073870;28;20052;-65
2024/01/15 00:28:58;;;;;;;30.08;21.05;;;;;;;4.19;99.82;97318.00;5070337;28;20031;-66
2024/01/15 00:31:26;;;;;;;28.70;20.75;;;;;;;4.14;100.00;97313.25;5071074;28;20031;-66
2024/01/15 00:33:54;;;;;;;27.20;20.60;;;;;;;4.38;100.00;97363.50;5087299;27;20043;-66
2024/01/15 00:36:20;;;;;;;26.33;18.83;;;;;;;4.32;100.00;97346.84;5071563;28;20031;-65
2024/01/15 00:38:47;;;;;;;27.13;18.40;;;;;;;4.33;100.00;97332.25;5069670;28;20165;-66
2024/01/15 00:41:13;;;;;;;24.50;17.02;;;;;;;4.40;99.73;97334.13;5069741;28;20084;-66
2024/01/15 00:43:38;;;;;;;24.35;17.17;;;;;;;4.10;99.71;97278.47;5055243;28;20603;-66
2024/01/15 00:46:03;;;;;;;21.13;16.83;;;;;;;4.51;98.30;97329.75;5070903;28;20035;-66
2024/01/15 00:48:29;;;;;;;24.52;18.48;;;;;;;4.49;98.34;97318.78;5068158;28;20446;-65
2024/01/15 00:50:54;;;;;;;22.83;17.55;;;;;;;4.14;98.04;97261.81;5069648;28;20046;-66
2024/01/15 00:53:22;;;;;;;24.20;17.35;;;;;;;4.55;97.99;97310.53;5085542;28;20108;-66
2024/01/15 00:55:50;;;;;;;22.80;17.27;;;;;;;4.51;97.29;97310.00;5067062;28;20063;-65
2024/01/15 00:58:20;;;;;;;23.60;17.13;;;;;;;4.23;97.16;97261.00;5077052;28;20047;-66
2024/01/15 01:00:46;;;;;;;23.67;17.80;;;;;;;4.55;97.56;97300.25;5087183;28;20028;-66
2024/01/15 01:03:11;;;;;;;23.73;17.92;;;;;;;4.58;97.37;97280.19;5058872;28;20740;-66
2024/01/15 01:05:37;;;;;;;24.67;17.52;;;;;;;4.39;97.81;97268.16;5053749;28;20027;-66
2024/01/15 01:08:03;;;;;;;26.35;17.88;;;;;;;4.57;97.34;97283.69;5090092;28;20123;-66
2024/01/15 01:10:31;;;;;;;22.63;16.55;;;;;;;4.50;97.46;97268.94;5049615;28;20054;-66
2024/01/15 01:12:56;;;;;;;23.13;16.80;;;;;;;4.45;98.10;97247.97;5071509;28;20102;-66
2024/01/15 01:15:24;;;;;;;24.17;16.63;;;;;;;4.21;98.23;97202.91;5056421;28;20493;-66
2024/01/15 01:17:49;;;;;;;24.60;17.85;;;;;;;4.50;98.95;97268.94;5059018;28;21121;-66
2024/01/15 01:20:15;;;;;;;22.88;17.85;;;;;;;4.54;98.56;97283.16;5060887;28;20036;-66
2024/01/15 01:22:40;;;;;;;24.55;18.88;;;;;;;4.21;100.00;97273.19;5055964;28;20058;-66
2024/01/15 01:25:09;;;;;;;27.45;18.80;;;;;;;3.90;100.00;97228.00;5066939;28;20031;-66
2024/01/15 01:27:35;;;;;;;27.55;18.73;;;;;;;4.22;100.00;97264.53;5076774;28;20407;-66
2024/01/15 01:30:03;;;;;;;24.52;18.52;;;;;;;4.35;100.00;97268.56;5074177;28;20723;-66
2024/01/15 01:32:30;;;;;;;23.15;17.20;;;;;;;4.39;100.00;97282.78;5075646;28;20112;-66
2024/01/15 01:34:59;;;;;;;25.25;18.40;;;;;;;4.41;100.00;97273.16;5070440;28;20044;-66
2024/01/15 01:37:24;;;;;;;24.30;17.73;;;;;;;4.34;100.00;97277.22;5078745;28;20056;-67
2024/01/15 01:39:54;;;;;;;24.38;17.83;;;;;;;4.19;100.00;97280.22;5056459;28;20386;-64
2024/01/15 01:42:19;;;;;;;23.67;17.55;;;;;;;4.13;100.00;97287.69;5065969;28;20107;-65
2024/01/15 01:44:45;;;;;;;23.38;18.13;;;;;;;3.99;100.00;97250.31;5092949;28;20111;-65
2024/01/15 01:47:10;;;;;;;21.60;17.55;;;;;;;4.01;100.00;97262.09;5061378;28;20032;-65
2024/01/15 01:49:39;;;;;;;23.40;17.73;;;;;;;3.83;100.00;97222.59;5073136;28;20027;-65
2024/01/15 01:52:07;;;;;;;25.65;18.55;;;;;;;4.13;100.00;97261.97;5075439;28;20564;-66
2024/01/15 01:54:32;;;;;;;24.85;17.95;;;;;;;4.18;100.00;97259.78;5055141;28;20127;-65
2024/01/15 01:56:58;;;;;;;23.67;17.27;;;;;;;4.14;100.00;97254.09;5075334;28;20634;-65
2024/01/15 01:59:28;;;;;;;22.15;17.17;;;;;;;4.19;100.00;97245.97;5081185;28;20015;-65
2024/01/15 02:01:57;;;;;;;23.83;17.08;;;;;;;4.17;100.00;97248.69;5088308;27;20036;-65
2024/01/15 02:04:24;;;;;;;22.02;16.63;;;;;;;3.87;100.00;97199.97;5080621;28;20154;-65
2024/01/15 02:06:50;;;;;;;21.17;16.27;;;;;;;3.82;100.00;97211.50;5077115;27;20035;-66
2024/01/15 02:09:15;;;;;;;22.50;15.85;;;;;;;4.04;100.00;97263.59;5081598;28;20031;-65
2024/01/15 02:11:44;;;;;;;28.58;17.45;;;;;;;3.88;100.00;97253.84;5076122;28;20020;-66
2024/01/15 02:14:10;;;;;;;24.33;16.90;;;;;;;3.88;100.00;97248.72;5072128;28;20669;-67
2024/01/15 02:16:38;;;;;;;20.95;15.90;;;;;;;3.81;100.00;97233.00;5051392;28;20047;-66
2024/01/15 02:19:03;;;;;;;23.33;16.77;;;;;;;3.86;100.00;97242.91;5069646;28;20043;-66
2024/01/15 02:21:31;;;;;;;20.52;15.82;;;;;;;3.97;100.00;97232.47;5070768;28;20039;-64
2024/01/15 02:23:56;;;;;;;22.52;16.38;;;;;;;4.01;100.00;97217.56;5052006;27;20653;-65
2024/01/15 02:26:22;;;;;;;21.40;16.52;;;;;;;3.81;100.00;97165.34;5059801;27;20273;-64
2024/01/15 02:28:48;;;;;;;20.77;16.05;;;;;;;4.09;100.00;97204.00;5074691;28;20033;-65
2024/01/15 02:31:13;;;;;;;22.55;16.15;;;;;;;4.17;100.00;97215.25;5061222;27;20037;-64
2024/01/15 02:33:39;;;;;;;22.75;15.95;;;;;;;4.14;100.00;97218.06;5062806;28;20031;-65
2024/01/15 02:36:09;;;;;;;21.83;16.67;;;;;;;4.13;100.00;97221.63;5073535;28;20032;-64
2024/01/15 02:38:36;;;;;;;21.65;15.68;;;;;;;3.96;100.00;97209.44;5077197;28;20035;-65
2024/01/15 02:41:04;;;;;;;21.25;15.85;;;;;;;4.09;100.00;97204.00;5089112;27;20028;-65
2024/01/15 02:43:29;;;;;;;20.02;15.35;;;;;;;4.07;100.00;97203.34;5078342;28;20156;-66
2024/01/15 02:45:54;;;;;;;20.08;15.60;;;;;;;4.07;100.00;97213.63;5057635;28;20028;-65
2024/01/15 02:48:20;;;;;;;20.95;15.25;;;;;;;4.10;100.00;97216.75;5098173;27;20098;-64
2024/01/15 02:50:45;;;;;;;22.75;15.13;;;;;;;3.74;100.00;97159.97;5091395;27;20490;-64
2024/01/15 02:53:13;;;;;;;17.83;14.63;;;;;;;4.03;100.00;97207.94;5076051;27;20036;-65
2024/01/15 02:55:43;;;;;;;20.17;14.63;;;;;;;4.03;100.00;97207.94;5054880;28;20023;-66
2024/01/15 02:58:09;;;;;;;21.52;14.80;;;;;;;4.03;100.00;97200.22;5090437;27;20039;-64
2024/01/15 03:00:36;;;;;;;19.92;14.98;;;;;;;4.00;100.00;97183.31;5071082;28;20820;-65
2024/01/15 03:03:02;;;;;;;21.13;14.73;;;;;;;3.80;100.00;97190.25;5073321;28;20035;-65
2024/01/15 03:05:27;;;;;;;20.67;14.65;;;;;;;3.77;100.00;97184.56;5057657;28;20105;-66
2024/01/15 03:07:53;;;;;;;19.52;15.10;;;;;;;3.51;100.00;97135.50;5071981;28;20036;-66
2024/01/15 03:10:20;;;;;;;19.38;14.75;;;;;;;3.79;100.00;97169.81;5071795;27;20027;-66
2024/01/15 03:12:46;;;;;;;20.65;15.43;;;;;;;3.69;100.00;97164.69;5078017;27;20054;-66
2024/01/15 03:15:11;;;;;;;19.77;15.15;;;;;;;3.66;100.00;97173.47;5088213;27;20028;-66
2024/01/15 03:17:36;;;;;;;21.08;15.20;;;;;;;3.56;100.00;97170.13;5071939;28;20039;-66
2024/01/15 03:20:04;;;;;;;20.05;15.05;;;;;;;3.38;100.00;97128.06;5078616;28;20035;-65
2024/01/15 03:22:32;;;;;;;21.95;14.70;;;;;;;3.59;100.00;97167.25;5070958;28;20038;-65
2024/01/15 03:24:57;;;;;;;19.20;15.13;;;;;;;3.55;100.00;97162.53;5080292;28;20114;-66
2024/01/15 03:27:28;;;;;;;18.55;14.45;;;;;;;3.09;100.00;97105.75;5074071;28;20028;-66
2024/01/15 03:29:55;;;;;;;19.23;15.02;;;;;;;3.57;100.00;97170.91;5073337;28;20028;-64
2024/01/15 03:32:21;;;;;;;19.63;14.13;;;;;;;3.56;100.00;97159.84;5067130;28;20060;-66
2024/01/15 03:34:47;;;;;;;20.05;14.90;;;;;;;3.59;100.00;97154.41;5056661;28;20122;-66
2024/01/15 03:37:17;;;;;;;23.27;15.23;;;;;;;3.66;100.00;97144.41;5075895;28;20962;-65
2024/01/15 03:39:43;;;;;;;21.90;15.38;;;;;;;3.65;100.00;97151.31;5058851;28;20068;-66
2024/01/15 03:42:08;;;;;;;23.92;16.65;;;;;;;3.69;100.00;97169.00;5051307;28;20441;-65
2024/01/15 03:44:33;;;;;;;19.30;14.77;;;;;;;3.51;100.00;97153.47;5064685;28;20032;-66
2024/01/15 03:47:01;;;;;;;20.30;15.55;;;;;;;3.29;100.00;97149.44;5055483;28;20035;-65
2024/01/15 03:49:26;;;;;;;20.00;15.43;;;;;;;3.36;100.00;97150.47;5076581;28;20051;-66
2024/01/15 03:51:54;;;;;;;19.17;14.60;;;;;;;3.36;100.00;97145.34;5054889;28;20577;-66
2024/01/15 03:54:19;;;;;;;19.58;14.57;;;;;;;2.91;100.00;97079.09;5054527;28;20050;-65
2024/01/15 03:56:45;;;;;;;19.02;14.38;;;;;;;3.34;100.00;97129.25;5059828;28;20110;-65
2024/01/15 03:59:10;;;;;;;18.73;13.52;;;;;;;3.42;100.00;97125.06;5071267;28;20052;-65
2024/01/15 04:01:35;;;;;;;19.05;13.75;;;;;;;3.54;100.00;97122.34;5062804;28;20080;-66
2024/01/15 04:04:03;;;;;;;19.60;12.60;;;;;;;3.59;100.00;97127.91;5055114;28;20024;-66
2024/01/15 04:06:29;;;;;;;19.05;13.43;;;;;;;3.64;100.00;97118.81;5081385;27;20034;-66
2024/01/15 04:08:54;;;;;;;18.50;13.73;;;;;;;3.63;100.00;97108.66;5052673;28;20027;-66
2024/01/15 04:11:22;;;;;;;19.58;14.15;;;;;;;3.19;100.00;97080.03;5059916;28;20039;-66
2024/01/15 04:13:48;;;;;;;18.83;14.07;;;;;;;3.15;100.00;97073.56;5077220;27;20104;-66
2024/01/15 04:16:13;;;;;;;20.67;16.15;;;;;;;3.40;100.00;97118.44;5067202;28;20076;-66
2024/01/15 04:18:38;;;;;;;21.00;14.65;;;;;;;3.02;100.00;97072.06;5077627;28;20020;-67
2024/01/15 04:21:08;;;;;;;22.50;14.73;;;;;;;3.20;100.00;97113.31;5089041;27;20103;-66
2024/01/15 04:23:35;;;;;;;21.75;16.02;;;;;;;2.82;100.00;97044.78;5087023;27;20108;-66
2024/01/15 04:26:01;;;;;;;23.05;17.58;;;;;;;2.94;100.00;97102.75;5074503;28;20117;-66
2024/01/15 04:28:26;;;;;;;24.17;18.02;;;;;;;3.05;100.00;97110.34;5057055;27;20082;-65
2024/01/15 04:30:51;;;;;;;26.13;19.67;;;;;;;3.13;100.00;97109.66;5080037;28;20034;-66
2024/01/15 04:33:19;;;;;;;25.00;19.00;;;;;;;2.93;100.00;97070.31;5066858;28;20181;-64
2024/01/15 04:35:44;;;;;;;26.63;20.00;;;;;;;3.18;100.00;97102.34;5075704;28;20103;-66
2024/01/15 04:38:12;;;;;;;26.50;19.83;;;;;;;2.95;100.00;97067.63;5087920;27;20847;-65
2024/01/15 04:40:37;;;;;;;28.08;20.15;;;;;;;3.18;100.00;97099.78;5072664;28;20032;-66
2024/01/15 04:43:05;;;;;;;26.85;19.70;;;;;;;3.14;100.00;97085.59;5062454;28;20035;-66
2024/01/15 04:45:30;;;;;;;25.75;19.67;;;;;;;2.95;100.00;97055.56;5072366;28;20036;-66
2024/01/15 04:47:57;;;;;;;25.98;19.60;;;;;;;3.11;100.00;97075.59;5090045;27;20096;-65
2024/01/15 04:50:22;;;;;;;27.40;19.88;;;;;;;2.73;100.00;97030.19;5072722;28;20027;-65
2024/01/15 04:52:47;;;;;;;29.73;20.42;;;;;;;2.62;100.00;97033.69;5078052;28;20063;-65
2024/01/15 04:55:15;;;;;;;26.10;19.42;;;;;;;2.71;100.00;97071.38;5052100;28;20031;-65
2024/01/15 04:57:43;;;;;;;24.38;19.48;;;;;;;2.91;100.00;97085.03;5074086;28;20035;-66
2024/01/15 05:00:10;;;;;;;27.95;20.83;;;;;;;2.86;100.00;97074.34;5057810;28;20032;-66
2024/01/15 05:02:37;;;;;;;25.65;20.20;;;;;;;2.85;100.00;97098.44;5072685;28;20089;-65
2024/01/15 05:05:03;;;;;;;30.90;21.83;;;;;;;2.31;100.00;97041.44;5057989;28;20032;-67
2024/01/15 05:07:28;;;;;;;30.48;21.98;;;;;;;2.63;100.00;97097.72;5068425;28;20553;-66
2024/01/15 05:09:54;;;;;;;30.05;22.05;;;;;;;2.58;100.00;97092.16;5079021;28;20076;-66
2024/01/15 05:12:19;;;;;;;29.95;22.10;;;;;;;2.41;100.00;97051.72;5083381;28;20042;-65
2024/01/15 05:14:45;;;;;;;31.08;22.17;;;;;;;2.58;100.00;97075.94;5092753;28;20776;-66
2024/01/15 05:17:12;;;;;;;29.52;22.15;;;;;;;2.49;100.00;97072.41;5068897;28;20470;-66
2024/01/15 05:19:40;;;;;;;29.23;22.83;;;;;;;2.62;100.00;97078.09;5053103;28;20032;-64
2024/01/15 05:22:07;;;;;;;32.97;24.20;;;;;;;2.64;100.00;97083.09;5055643;28;20019;-66
2024/01/15 05:24:33;;;;;;;29.83;22.88;;;;;;;2.61;100.00;97063.66;5048637;28;20154;-66
2024/01/15 05:26:58;;;;;;;30.77;22.95;;;;;;;2.52;100.00;97073.91;5096602;28;20030;-66
2024/01/15 05:29:26;;;;;;;31.30;22.83;;;;;;;2.60;100.00;97082.56;5066518;28;20020;-66
2024/01/15 05:31:54;;;;;;;31.70;22.75;;;;;;;2.70;100.00;97087.69;5076138;28;20016;-66
2024/01/15 05:34:22;;;;;;;32.10;23.67;;;;;;;2.60;100.00;97076.63;5087872;27;20038;-65
2024/01/15 05:36:50;;;;;;;30.83;22.65;;;;;;;2.44;100.00;97082.25;5079077;28;20019;-66
2024/01/15 05:39:15;;;;;;;33.00;22.88;;;;;;;2.47;100.00;97093.06;5063622;28;20664;-65
2024/01/15 05:41:41;;;;;;;32.45;23.15;;;;;;;2.27;100.00;97081.94;5076045;28;20031;-65
2024/01/15 05:44:06;;;;;;;30.00;23.27;;;;;;;2.00;100.00;97018.41;5079199;28;20095;-65
2024/01/15 05:46:31;;;;;;;28.08;22.42;;;;;;;2.25;100.00;97062.50;5076442;28;20475;-65
2024/01/15 05:48:59;;;;;;;30.88;23.38;;;;;;;2.38;100.00;97064.81;5077587;28;20109;-66
2024/01/15 05:51:27;;;;;;;32.05;22.88;;;;;;;2.33;100.00;97061.84;5072681;28;20057;-66
2024/01/15 05:53:55;;;;;;;34.65;23.35;;;;;;;2.44;100.00;97059.16;5074625;28;20035;-66
2024/01/15 05:56:20;;;;;;;28.25;22.73;;;;;;;2.37;100.00;97046.03;5077514;27;20042;-66
2024/01/15 05:58:48;;;;;;;30.08;22.80;;;;;;;2.10;100.00;96995.38;5073391;28;20043;-66
2024/01/15 06:01:13;;;;;;;31.55;22.35;;;;;;;1.91;100.00;96981.53;5073891;28;20062;-65
2024/01/15 06:03:38;;;;;;;31.17;21.67;;;;;;;2.36;100.00;97057.25;5068783;28;20158;-66
2024/01/15 06:06:04;;;;;;;30.90;23.63;;;;;;;2.34;100.00;97033.50;5075288;28;20108;-67
2024/01/15 06:08:32;;;;;;;33.00;25.02;;;;;;;2.35;100.00;97032.53;5071324;28;20020;-65
2024/01/15 06:11:00;;;;;;;32.40;25.33;;;;;;;2.16;100.00;97045.34;5066726;28;20680;-66
2024/01/15 06:13:30;;;;;;;33.40;24.25;;;;;;;2.09;100.00;97035.56;5081325;28;20526;-66
2024/01/15 06:15:58;;;;;;;32.90;23.95;;;;;;;2.08;100.00;97043.41;5077825;27;20782;-65
2024/01/15 06:18:26;;;;;;;33.00;24.30;;;;;;;1.97;100.00;97046.06;5083369;27;20115;-66
2024/01/15 06:20:54;;;;;;;32.25;24.00;;;;;;;1.86;100.00;97037.53;5080436;28;20028;-67
2024/01/15 06:23:19;;;;;;;31.80;23.13;;;;;;;1.83;100.00;97039.53;5072444;28;20803;-65
2024/01/15 06:25:45;;;;;;;33.55;24.67;;;;;;;1.89;100.00;97036.44;5072583;28;20036;-65
2024/01/15 06:28:10;;;;;;;32.95;23.52;;;;;;;1.65;100.00;96983.75;5071676;28;20395;-65
2024/01/15 06:30:40;;;;;;;32.13;24.48;;;;;;;1.77;100.00;96991.34;5086509;28;20474;-66
2024/01/15 06:33:05;;;;;;;32.88;23.17;;;;;;;1.57;100.00;96978.47;5058635;28;20063;-66
2024/01/15 06:35:31;;;;;;;33.13;23.83;;;;;;;1.88;100.00;97042.50;5062735;28;20131;-66
2024/01/15 06:37:59;;;;;;;33.72;23.95;;;;;;;1.56;100.00;96989.66;5055898;28;20031;-66
2024/01/15 06:40:24;;;;;;;35.20;23.52;;;;;;;2.00;100.00;97035.56;5068753;28;20729;-65
2024/01/15 06:42:52;;;;;;;32.97;25.42;;;;;;;1.93;100.00;97025.00;5069423;28;20585;-67
2024/01/15 06:45:17;;;;;;;35.10;25.70;;;;;;;2.03;100.00;97030.97;5076713;28;20032;-66
2024/01/15 06:47:43;;;;;;;33.95;24.08;;;;;;;2.00;100.00;97033.78;5054285;28;20058;-66
2024/01/15 06:50:08;;;;;;;30.98;23.30;;;;;;;1.53;100.00;96983.03;5068980;28;20080;-63
2024/01/15 06:52:36;;;;;;;35.63;24.80;;;;;;;1.81;100.00;97031.97;5090686;27;20474;-65
2024/01/15 06:55:05;;;;;;;32.70;24.65;;;;;;;1.88;100.00;97047.63;5060674;28;20028;-67
2024/01/15 06:57:31;;;;;;;31.70;23.33;;;;;;;1.85;100.00;97040.22;5082398;27;20039;-64
2024/01/15 06:59:58;;;;;;;36.17;25.40;;;;;;;1.87;100.00;97034.00;5077263;28;20031;-66
2024/01/15 07:02:24;;;;;;;37.00;25.83;;;;;;;1.89;100.00;97044.94;5080241;27;20031;-66
2024/01/15 07:04:49;;;;;;;36.83;25.92;;;;;;;1.62;100.00;96996.00;5047543;28;20927;-66
2024/01/15 07:07:15;;;;;;;36.92;25.60;;;;;;;1.61;100.00;97013.13;5089379;28;20070;-66
2024/01/15 07:09:43;;;;;;;37.63;26.95;;;;;;;1.57;100.00;96988.72;5065684;27;20171;-65
2024/01/15 07:12:08;;;;;;;39.58;27.75;;;;;;;1.83;100.00;97042.09;5093162;27;20534;-66
2024/01/15 07:14:36;;;;;;;37.97;26.20;;;;;;;1.69;100.00;97056.84;5083666;28;20050;-65
2024/01/15 07:17:06;;;;;;;36.13;25.48;;;;;;;1.78;100.00;97069.84;5090633;27;20016;-65
2024/01/15 07:19:32;;;;;;;32.97;24.85;;;;;;;1.77;100.00;97045.16;5060157;28;20142;-65
2024/01/15 07:22:00;;;;;;;33.42;24.40;;;;;;;1.73;100.00;97063.38;5065738;28;20132;-66
2024/01/15 07:24:25;;;;;;;33.72;23.17;;;;;;;1.44;100.00;97006.03;5073743;28;20529;-67
2024/01/15 07:26:50;;;;;;;33.03;22.85;;;;;;;1.73;100.00;97065.94;5070568;28;20036;-66
2024/01/15 07:29:17;;;;;;;30.92;22.75;;;;;;;1.84;100.00;97074.47;5064057;28;20629;-67
2024/01/15 07:31:50;;;;;;;33.25;22.67;;;;;;;1.44;100.00;97049.56;5085443;28;20073;-65
2024/01/15 07:34:16;;;;;;;31.95;22.98;;;;;;;1.16;100.00;97010.84;5068958;28;20028;-66
2024/01/15 07:36:42;;;;;;;29.58;22.75;;;;;;;1.63;100.00;97072.75;5060326;28;20062;-66
2024/01/15 07:39:07;;;;;;;30.58;23.05;;;;;;;1.58;100.00;97056.94;5049617;28;20122;-66
2024/01/15 07:41:33;;;;;;;31.27;22.67;;;;;;;1.40;100.00;97023.38;5053621;28;20466;-67
2024/01/15 07:43:58;;;;;;;30.85;21.70;;;;;;;1.66;100.00;97049.44;5067289;27;20039;-67
2024/01/15 07:46:28;;;;;;;35.78;23.17;;;;;;;1.30;100.00;97019.97;5057358;28;20028;-66
2024/01/15 07:48:57;;;;;;;31.00;22.77;;;;;;;1.62;100.00;97045.47;5073969;27;20039;-65
2024/01/15 07:51:25;;;;;;;32.05;22.13;;;;;;;1.79;100.00;97053.53;5076306;28;20063;-66
2024/01/15 07:53:55;;;;;;;30.27;22.40;;;;;;;1.88;100.00;97050.19;5060507;28;20325;-66
2024/01/15 07:56:21;;;;;;;34.70;23.13;;;;;;;1.95;100.00;97048.75;5064355;28;20491;-68
2024/01/15 07:58:46;;;;;;;30.75;22.60;;;;;;;1.73;100.00;97044.59;5077047;28;20043;-66
2024/01/15 08:01:12;;;;;;;29.05;22.80;;;;;;;1.89;100.00;97050.06;5069244;27;20071;-66
2024/01/15 08:03:37;;;;;;;32.53;23.63;;;;;;;1.89;100.00;97039.00;5052078;28;20028;-66
2024/01/15 08:06:05;;;;;;;34.70;24.13;;;;;;;1.79;100.00;97045.84;5072744;28;20046;-66
2024/01/15 08:08:30;;;;;;;33.65;24.55;;;;;;;1.65;100.00;97029.88;5063505;28;20024;-66
2024/01/15 08:10:56;;;;;;;35.72;26.25;;;;;;;1.60;100.00;97041.44;5096270;28;20086;-66
2024/01/15 08:13:23;;;;;;;33.33;26.05;;;;;;;1.54;100.00;97048.69;5053481;28;20506;-67
2024/01/15 08:15:50;;;;;;;34.08;25.10;;;;;;;1.65;100.00;97022.19;5075272;28;20152;-66
2024/01/15 08:18:18;;;;;;;33.97;25.42;;;;;;;1.64;100.00;97020.56;5072075;27;20023;-65
2024/01/15 08:20:43;;;;;;;35.85;25.20;;;;;;;1.71;100.00;97021.66;5069066;28;20061;-67
2024/01/15 08:23:09;;;;;;;39.63;26.95;;;;;;;1.73;100.00;97009.56;5059299;27;20107;-66
2024/01/15 08:25:34;;;;;;;34.35;24.85;;;;;;;1.77;100.00;97015.25;5068068;28;21265;-67
2024/01/15 08:28:00;;;;;;;35.38;25.58;;;;;;;1.69;100.00;96997.13;5093997;27;20038;-67
2024/01/15 08:30:27;;;;;;;33.70;24.65;;;;;;;1.76;100.00;97011.03;5079749;28;21176;-65
2024/01/15 08:32:53;;;;;;;33.72;25.35;;;;;;;1.54;100.00;97006.91;5075586;28;20242;-67
2024/01/15 08:35:22;;;;;;;35.22;25.02;;;;;;;1.63;100.00;97036.88;5054597;28;20031;-67
2024/01/15 08:37:51;;;;;;;32.73;24.77;;;;;;;1.42;100.00;96972.84;5071944;28;20095;-67
2024/01/15 08:40:19;;;;;;;33.17;23.60;;;;;;;1.52;100.00;97031.84;5060833;28;20376;-66
2024/01/15 08:42:47;;;;;;;33.50;24.05;;;;;;;1.45;100.00;97030.72;5072452;28;20064;-66
2024/01/15 08:45:15;;;;;;;32.83;24.48;;;;;;;1.59;100.00;97016.75;5077329;27;20913;-67
2024/01/15 08:47:40;;;;;;;35.17;25.10;;;;;;;1.36;100.00;96987.94;5058515;28;20012;-65
2024/01/15 08:50:09;;;;;;;36.65;25.75;;;;;;;1.71;100.00;97025.97;5058585;28;20059;-67
2024/01/15 08:52:39;;;;;;;32.35;24.27;;;;;;;1.82;100.00;97028.44;5069439;28;20024;-66
2024/01/15 08:55:07;;;;;;;31.88;24.17;;;;;;;1.86;100.00;97034.13;5076916;28;20031;-67
2024/01/15 08:57:33;;;;;;;35.35;24.48;;;;;;;1.87;100.00;97018.63;5076231;28;20028;-66
2024/01/15 08:59:59;;;;;;;34.78;23.48;;;;;;;1.92;100.00;97025.94;5053634;28;20028;-66
2024/01/15 09:02:27;;;;;;;33.53;24.27;;;;;;;2.02;100.00;97037.03;5054679;28;20032;-66
2024/01/15 09:04:52;;;;;;;33.83;24.88;;;;;;;1.91;100.00;97045.63;5096085;28;20059;-66
2024/01/15 09:07:18;;;;;;;36.05;25.95;;;;;;;1.65;100.00;96976.06;5072676;28;20173;-67
2024/01/15 09:09:43;;;;;;;33.13;24.20;;;;;;;1.72;100.00;96989.97;5062027;28;20166;-66
2024/01/15 09:12:08;;;;;;;30.70;22.92;;;;;;;1.72;100.00;96974.59;5075393;28;20099;-67
2024/01/15 09:14:34;;;;;;;27.80;21.05;;;;;;;2.02;100.00;97023.41;5052243;28;20149;-66
2024/01/15 09:17:03;;;;;;;31.13;22.00;;;;;;;1.79;100.00;96989.44;5050331;28;20036;-65
2024/01/15 09:19:28;;;;;;;27.85;19.00;;;;;;;2.00;100.00;97033.78;5031032;28;20511;-65
2024/01/15 09:21:56;;;;;;;27.20;19.52;;;;;;;2.03;100.00;97045.56;5038673;28;20127;-65
2024/01/15 09:24:22;;;;;;;27.13;18.83;;;;;;;2.08;100.00;97030.56;5051434;28;20450;-66
2024/01/15 09:26:49;;;;;;;30.38;19.88;;;;;;;2.20;100.00;97049.25;5039333;28;20078;-66
2024/01/15 09:29:15;;;;;;;22.55;15.93;;;;;;;2.20;100.00;97039.00;5049210;28;20032;-66
2024/01/15 09:31:43;;;;;;;23.20;17.02;;;;;;;2.26;100.00;97051.28;5046056;28;20843;-65
2024/01/15 09:34:08;;;;;;;21.67;15.68;;;;;;;2.32;100.00;97058.47;5050995;28;20045;-66
2024/01/15 09:36:40;;;;;;;22.63;14.50;;;;;;;2.29;100.00;97048.47;5052160;28;20032;-66
2024/01/15 09:39:08;;;;;;;19.08;13.48;;;;;;;2.39;100.00;97056.16;5038123;28;20225;-65
2024/01/15 09:41:37;;;;;;;22.33;14.00;;;;;;;2.38;100.00;97039.19;5050418;28;20505;-66
2024/01/15 09:44:07;;;;;;;19.88;12.73;;;;;;;2.40;100.00;97037.28;5051999;28;20040;-66
2024/01/15 09:46:33;;;;;;;20.77;14.40;;;;;;;2.11;100.00;96986.72;5053361;28;20054;-66
2024/01/15 09:49:02;;;;;;;20.77;13.90;;;;;;;2.48;100.00;97034.84;5054930;28;20031;-67
2024/01/15 09:51:31;;;;;;;21.20;13.70;;;;;;;2.42;100.00;97028.50;5053879;28;20051;-66
2024/01/15 09:54:04;;;;;;;19.15;14.07;;;;;;;2.37;100.00;97004.19;5068966;28;20040;-66
2024/01/15 09:56:33;;;;;;;20.65;13.77;;;;;;;2.42;100.00;97015.69;5049650;28;21023;-66
2024/01/15 09:58:58;;;;;;;20.90;13.35;;;;;;;2.46;100.00;97017.06;5059178;28;20057;-67
2024/01/15 10:01:24;;;;;;;21.55;13.88;;;;;;;2.39;100.00;97015.97;5031892;28;20056;-66
2024/01/15 10:03:52;;;;;;;22.10;13.23;;;;;;;2.51;100.00;97006.38;5052747;28;20467;-65
2024/01/15 10:06:18;;;;;;;20.05;12.98;;;;;;;2.71;100.00;96999.50;5064228;28;20025;-67
2024/01/15 10:08:51;;;;;;;17.92;12.35;;;;;;;2.74;100.00;96993.28;5052745;28;20054;-65
2024/01/15 10:11:21;;;;;;;18.17;13.02;;;;;;;2.77;100.00;96983.56;5047805;28;20031;-65
2024/01/15 10:13:47;;;;;;;17.85;12.57;;;;;;;2.82;100.00;96988.28;5064188;28;20044;-65
2024/01/15 10:16:12;;;;;;;18.67;12.45;;;;;;;2.44;100.00;96924.00;5080922;28;20505;-66
2024/01/15 10:18:42;;;;;;;17.92;12.13;;;;;;;2.61;100.00;96940.50;5061947;28;20480;-65
2024/01/15 10:21:08;;;;;;;17.40;12.65;;;;;;;2.81;100.00;96948.16;5073996;28;20032;-65
2024/01/15 10:23:36;;;;;;;18.83;12.38;;;;;;;2.85;100.00;96936.69;5068394;28;20067;-62
2024/01/15 10:26:02;;;;;;;19.75;13.30;;;;;;;3.27;100.00;96996.22;5094995;28;20923;-66
2024/01/15 10:28:29;;;;;;;17.52;11.88;;;;;;;3.16;100.00;96939.03;5054981;28;20024;-65
2024/01/15 10:30:58;;;;;;;18.15;10.73;;;;;;;3.50;100.00;96988.19;5074673;28;20023;-65
2024/01/15 10:33:25;;;;;;;14.10;10.20;;;;;;;3.55;100.00;96977.50;5073091;28;20645;-66
2024/01/15 10:35:53;;;;;;;15.52;10.80;;;;;;;3.22;100.00;96907.69;5056007;28;20016;-65
2024/01/15 10:38:22;;;;;;;16.20;10.57;;;;;;;3.57;100.00;96971.25;5088638;28;20645;-66
2024/01/15 10:40:51;;;;;;;15.40;9.75;;;;;;;3.58;100.00;96954.09;5088727;28;20024;-65
2024/01/15 10:43:17;;;;;;;15.82;8.95;;;;;;;3.65;100.00;96970.53;5083156;27;20142;-65
2024/01/15 10:45:45;;;;;;;13.40;8.75;;;;;;;3.87;100.00;96968.56;5072027;27;20020;-65
2024/01/15 10:48:11;;;;;;;13.40;8.75;;;;;;;4.07;100.00;96964.13;5056224;28;20038;-66
2024/01/15 10:50:37;;;;;;;13.77;9.20;;;;;;;4.16;100.00;96971.81;5057295;27;20057;-66
2024/01/15 10:53:06;;;;;;;14.80;10.25;;;;;;;4.17;100.00;96947.69;5068592;28;20092;-66
2024/01/15 10:55:37;;;;;;;12.60;8.35;;;;;;;4.17;100.00;96950.25;5083592;28;20066;-67
2024/01/15 10:58:05;;;;;;;12.35;8.25;;;;;;;3.89;100.00;96879.22;5074947;28;20040;-63
2024/01/15 11:00:30;;;;;;;12.25;8.32;;;;;;;3.97;100.00;96880.13;5040694;28;20439;-66
2024/01/15 11:03:01;;;;;;;11.38;6.15;;;;;;;4.25;100.00;96923.78;5072417;28;20027;-65
2024/01/15 11:05:29;;;;;;;8.00;5.18;;;;;;;4.42;100.00;96914.47;5048263;28;20827;-66
2024/01/15 11:08:01;;;;;;;12.55;8.15;;;;;;;4.43;99.44;96911.75;5054231;28;20020;-66
2024/01/15 11:10:46;;;;;;;14.30;8.98;;;;;;;4.42;99.90;96902.41;5083604;27;20031;-65
2024/01/15 11:13:33;;;;;;;12.35;7.85;;;;;;;4.21;97.55;96842.72;5038534;28;20055;-64
2024/01/15 11:16:02;;;;;;;14.50;7.82;;;;;;;4.54;97.04;96886.72;5061066;28;20179;-65
2024/01/15 11:18:29;;;;;;;12.05;8.15;;;;;;;4.48;98.00;96869.31;5053112;28;20067;-65